Time;durP1;ratioP1;P1;durP2;ratioP2;P2;SDS_P1;SDS_P2;PMS_P1;PMS_P2;Temp;Humidity;BMP_temperature;BMP_pressure;BME280_temperature;BME280_humidity;BME280_pressure;Samples;Min_cycle;Max_cycle;Signal;HPM_P1;HPM_P2
2022/09/19 00:15:49;;;;;;;;;;;16.50;99.90;;;;;;4881895;29;19926;-79
2022/09/19 00:21:38;;;;;;;;;;;16.70;99.90;;;;;;4844350;29;20142;-79
2022/09/19 01:00:49;;;;;;;;;;;17.00;99.90;;;;;;4969444;28;19921;-78
2022/09/19 01:31:27;;;;;;;;;;;17.10;99.90;;;;;;4944957;29;19973;-79
2022/09/19 01:34:42;;;;;;;;;;;;;;;;;;;;;
2022/09/19 02:05:15;;;;;;;;;;;;;;;;;;;;;
2022/09/19 02:17:27;;;;;;;;;;;17.20;99.90;;;;;;4843724;29;20017;-79
2022/09/19 03:05:15;;;;;;;;;;;;;;;;;;;;;
2022/09/19 03:20:34;;;;;;;;;;;16.90;99.90;;;;;;4878089;29;19918;-79
2022/09/19 03:29:31;;;;;;;;;;;17.00;99.90;;;;;;4867721;29;19927;-79
2022/09/19 03:35:04;;;;;;;;;;;17.10;99.90;;;;;;4839854;29;19920;-79
2022/09/19 03:41:21;;;;;;;;;;;;;;;;;;;;;
2022/09/19 03:56:28;;;;;;;;;;;17.20;99.90;;;;;;4866562;29;19943;-78
2022/09/19 04:21:24;;;;;;;;;;;17.20;99.90;;;;;;4804315;29;19953;-79
2022/09/19 04:36:24;;;;;;;;;;;17.20;99.90;;;;;;4809752;29;20030;-78
2022/09/19 04:45:39;;;;;;;;;;;17.10;99.90;;;;;;4868485;29;19947;-78
2022/09/19 04:48:53;;;;;;;;;;;;;;;;;;;;;
2022/09/19 05:01:04;;;;;;;;;;;17.10;99.90;;;;;;4892974;29;19927;-78
2022/09/19 05:15:50;;;;;;;;;;;17.20;99.90;;;;;;5000887;28;19985;-78
2022/09/19 05:21:48;;;;;;;;;;;17.40;99.90;;;;;;4916430;28;19939;-79
2022/09/19 05:24:52;;;;;;;;;;;17.40;99.90;;;;;;5004646;28;19933;-78
2022/09/19 05:30:32;;;;;;;;;;;17.40;99.90;;;;;;5002859;28;19917;-73
2022/09/19 05:36:13;;;;;;;;;;;17.40;99.90;;;;;;4994736;28;19921;-73
2022/09/19 05:38:53;;;;;;;;;;;;;;;;;;;;;
2022/09/19 05:41:43;;;;;;;;;;;17.30;99.90;;;;;;4959606;28;19918;-73
2022/09/19 05:50:31;;;;;;;;;;;17.40;99.90;;;;;;4968676;28;20014;-72
2022/09/19 05:56:15;;;;;;;;;;;17.40;99.90;;;;;;4996370;28;19956;-73
2022/09/19 05:59:08;;;;;;;;;;;;;;;;;;;;;
2022/09/19 06:01:47;;;;;;;;;;;;;;;;;;;;;
2022/09/19 06:10:23;;;;;;;;;;;17.90;99.90;;;;;;4922186;29;19918;-72
2022/09/19 06:12:49;;;;;;;;;;;18.00;99.90;;;;;;4983571;28;20004;-72
2022/09/19 06:15:15;;;;;;;;;;;18.00;99.90;;;;;;4994486;28;19995;-72
2022/09/19 06:17:41;;;;;;;;;;;17.90;99.90;;;;;;4994740;28;19913;-72
2022/09/19 06:20:28;;;;;;;;;;;17.90;99.90;;;;;;4978133;28;19933;-72
2022/09/19 06:23:01;;;;;;;;;;;17.90;99.90;;;;;;4991840;28;19905;-73
2022/09/19 06:25:35;;;;;;;;;;;17.90;99.90;;;;;;4992203;28;19917;-73
2022/09/19 06:28:03;;;;;;;;;;;18.00;99.90;;;;;;4994772;28;19929;-72
2022/09/19 06:30:44;;;;;;;;;;;18.00;99.90;;;;;;4995469;28;19909;-72
2022/09/19 06:33:10;;;;;;;;;;;18.00;99.90;;;;;;4996196;28;19953;-72
2022/09/19 06:35:39;;;;;;;;;;;18.10;99.90;;;;;;4995301;28;19941;-72
2022/09/19 06:38:07;;;;;;;;;;;18.10;99.90;;;;;;4991746;28;20191;-72
2022/09/19 06:40:34;;;;;;;;;;;18.20;99.90;;;;;;4992913;28;19941;-72
2022/09/19 06:43:01;;;;;;;;;;;18.30;99.90;;;;;;4994098;28;19933;-72
2022/09/19 06:45:30;;;;;;;;;;;18.30;99.90;;;;;;4993661;28;19909;-72
2022/09/19 06:48:40;;;;;;;;;;;;;;;;;;;;;
2022/09/19 06:51:14;;;;;;;;;;;18.40;99.90;;;;;;4994018;28;19916;-72
2022/09/19 06:53:52;;;;;;;;;;;;;;;;;;;;;
2022/09/19 06:56:49;;;;;;;;;;;18.60;99.90;;;;;;4980631;28;19918;-73
2022/09/19 07:02:20;;;;;;;;;;;18.80;99.90;;;;;;4913379;29;20019;-72
2022/09/19 07:04:46;;;;;;;;;;;18.80;99.90;;;;;;4991298;28;20080;-72
2022/09/19 07:07:13;;;;;;;;;;;18.90;99.90;;;;;;4992050;28;20403;-72
2022/09/19 07:09:42;;;;;;;;;;;19.10;99.90;;;;;;4989234;28;20363;-72
2022/09/19 07:12:08;;;;;;;;;;;19.10;99.90;;;;;;4977351;28;19987;-72
2022/09/19 07:14:34;;;;;;;;;;;19.10;99.90;;;;;;4992999;28;19910;-71
2022/09/19 07:17:01;;;;;;;;;;;19.20;99.90;;;;;;4992872;28;19918;-67
2022/09/19 07:19:26;;;;;;;;;;;19.40;99.90;;;;;;4990601;28;19953;-67
2022/09/19 07:21:53;;;;;;;;;;;19.80;99.90;;;;;;4987602;28;19948;-67
2022/09/19 07:24:19;;;;;;;;;;;20.20;99.90;;;;;;4976347;28;20364;-67
2022/09/19 07:26:44;;;;;;;;;;;20.60;99.90;;;;;;4992935;28;19909;-67
2022/09/19 07:29:10;;;;;;;;;;;20.90;99.90;;;;;;4993778;28;19910;-67
2022/09/19 07:31:36;;;;;;;;;;;21.10;99.90;;;;;;4991182;28;19949;-66
2022/09/19 07:34:02;;;;;;;;;;;21.20;99.90;;;;;;4993020;28;19916;-67
2022/09/19 07:36:27;;;;;;;;;;;21.50;99.90;;;;;;4993433;28;19913;-68
2022/09/19 07:38:53;;;;;;;;;;;21.50;99.90;;;;;;4985091;28;19920;-67
2022/09/19 07:41:19;;;;;;;;;;;21.50;99.90;;;;;;4988856;28;19982;-72
2022/09/19 07:43:47;;;;;;;;;;;21.30;99.90;;;;;;4994273;28;19914;-66
2022/09/19 07:46:14;;;;;;;;;;;21.30;99.90;;;;;;4993183;28;19909;-68
2022/09/19 07:48:46;;;;;;;;;;;21.40;99.90;;;;;;4993219;28;19957;-67
2022/09/19 07:51:12;;;;;;;;;;;21.50;99.90;;;;;;4968761;28;19920;-68
2022/09/19 07:53:37;;;;;;;;;;;21.30;99.90;;;;;;4994904;28;20101;-68
2022/09/19 07:56:05;;;;;;;;;;;21.40;99.90;;;;;;4992138;28;20009;-67
2022/09/19 07:58:30;;;;;;;;;;;21.60;99.90;;;;;;4975528;28;19914;-69
2022/09/19 08:01:25;;;;;;;;;;;21.70;99.90;;;;;;4993307;28;19929;-67
2022/09/19 08:03:50;;;;;;;;;;;21.80;99.90;;;;;;4990292;28;20016;-67
2022/09/19 08:06:17;;;;;;;;;;;22.10;99.90;;;;;;4991658;28;19913;-65
2022/09/19 08:09:08;;;;;;;;;;;22.20;99.90;;;;;;4993004;28;19937;-65
2022/09/19 08:11:51;;;;;;;;;;;;;;;;;;;;;
2022/09/19 08:14:23;;;;;;;;;;;21.50;99.90;;;;;;4982390;28;19916;-66
2022/09/19 08:17:01;;;;;;;;;;;21.40;99.90;;;;;;4976456;28;19917;-72
2022/09/19 08:19:40;;;;;;;;;;;;;;;;;;;;;
2022/09/19 08:25:27;;;;;;;;;;;20.80;99.90;;;;;;4923074;29;19918;-71
2022/09/19 08:30:48;;;;;;;;;;;20.10;99.90;;;;;;4994090;28;19945;-71
2022/09/19 08:33:15;;;;;;;;;;;20.10;99.90;;;;;;4992303;28;19992;-71
2022/09/19 08:36:14;;;;;;;;;;;;;;;;;;;;;
2022/09/19 08:39:29;;;;;;;;;;;21.10;99.90;;;;;;4992497;28;20355;-71
2022/09/19 08:42:07;;;;;;;;;;;;;;;;;;;;;
2022/09/19 08:44:52;;;;;;;;;;;21.60;99.90;;;;;;4893691;29;19911;-73
2022/09/19 08:47:30;;;;;;;;;;;21.90;99.90;;;;;;4979326;28;20279;-71
2022/09/19 08:50:04;;;;;;;;;;;22.20;99.90;;;;;;4992807;28;19909;-70
2022/09/19 08:52:53;;;;;;;;;;;22.40;99.90;;;;;;4995510;28;20345;-70
2022/09/19 08:56:08;;;;;;;;;;;22.50;99.90;;;;;;4989258;28;19905;-73
2022/09/19 08:58:34;;;;;;;;;;;22.50;99.90;;;;;;4974945;28;19920;-71
2022/09/19 09:01:04;;;;;;;;;;;22.70;99.90;;;;;;4992747;28;20295;-71
2022/09/19 09:04:09;;;;;;;;;;;;;;;;;;;;;
2022/09/19 09:06:51;;;;;;;;;;;22.90;99.90;;;;;;4992959;28;19932;-74
2022/09/19 09:09:36;;;;;;;;;;;23.00;99.90;;;;;;4999422;28;19910;-70
2022/09/19 09:15:40;;;;;;;;;;;22.20;99.90;;;;;;4971905;28;19932;-67
2022/09/19 09:18:28;;;;;;;;;;;21.40;99.90;;;;;;4974857;28;19920;-69
2022/09/19 09:21:19;;;;;;;;;;;21.00;99.90;;;;;;4992775;28;20287;-65
2022/09/19 09:23:46;;;;;;;;;;;20.90;99.90;;;;;;4987199;28;19909;-68
2022/09/19 09:29:28;;;;;;;;;;;21.20;99.90;;;;;;4957114;28;20381;-67
2022/09/19 09:32:00;;;;;;;;;;;21.60;99.90;;;;;;4995239;28;19937;-66
2022/09/19 09:34:28;;;;;;;;;;;21.90;99.90;;;;;;4994301;28;19953;-67
2022/09/19 09:37:03;;;;;;;;;;;22.20;99.90;;;;;;4994185;28;19918;-72
2022/09/19 09:39:59;;;;;;;;;;;22.70;99.90;;;;;;4994884;28;19924;-73
2022/09/19 09:42:55;;;;;;;;;;;22.90;99.90;;;;;;4989864;28;19913;-72
2022/09/19 09:45:27;;;;;;;;;;;23.10;99.90;;;;;;4908696;29;20207;-73
2022/09/19 09:48:26;;;;;;;;;;;23.20;99.90;;;;;;4919031;29;19915;-73
2022/09/19 09:51:14;;;;;;;;;;;23.10;99.90;;;;;;4916857;29;20230;-71
2022/09/19 09:56:14;;;;;;;;;;;22.80;99.90;;;;;;4918036;29;19918;-70
2022/09/19 09:56:56;;;;;;;;;;;22.40;99.90;;;;;;4967524;28;20170;-69
2022/09/19 10:05:25;;;;;;;;;;;21.30;99.90;;;;;;4996225;28;19972;-71
2022/09/19 10:10:42;;;;;;;;;;;21.00;99.90;;;;;;4994847;28;19909;-71
2022/09/19 10:13:28;;;;;;;;;;;21.20;99.90;;;;;;4995011;28;20323;-71
2022/09/19 10:15:56;;;;;;;;;;;21.50;99.90;;;;;;4997225;28;19977;-68
2022/09/19 10:18:24;;;;;;;;;;;21.30;99.90;;;;;;4996430;28;20367;-69
2022/09/19 10:20:51;;;;;;;;;;;21.30;99.90;;;;;;4996007;28;20384;-69
2022/09/19 10:23:24;;;;;;;;;;;21.30;99.90;;;;;;4994759;28;19961;-68
2022/09/19 10:26:19;;;;;;;;;;;21.40;99.90;;;;;;4994881;28;19913;-68
2022/09/19 10:29:02;;;;;;;;;;;21.50;99.90;;;;;;4971259;28;19914;-69
2022/09/19 10:31:41;;;;;;;;;;;21.60;99.90;;;;;;4993984;28;20126;-69
2022/09/19 10:34:27;;;;;;;;;;;21.70;99.90;;;;;;4994722;28;19910;-69
2022/09/19 10:37:22;;;;;;;;;;;21.60;99.90;;;;;;4977138;28;19914;-69
2022/09/19 10:39:48;;;;;;;;;;;21.80;99.90;;;;;;4969136;28;19918;-69
2022/09/19 10:45:27;;;;;;;;;;;22.20;99.90;;;;;;4979631;28;19965;-69
2022/09/19 10:47:59;;;;;;;;;;;22.30;99.90;;;;;;4995640;28;19949;-69
2022/09/19 10:50:43;;;;;;;;;;;22.30;99.90;;;;;;4979151;28;19910;-69
2022/09/19 10:53:16;;;;;;;;;;;22.50;99.90;;;;;;4992810;28;20421;-71
2022/09/19 10:55:43;;;;;;;;;;;22.60;99.90;;;;;;4995121;28;19909;-71
2022/09/19 10:58:35;;;;;;;;;;;22.70;99.90;;;;;;4994877;28;20268;-71
2022/09/19 11:01:02;;;;;;;;;;;22.50;99.90;;;;;;4996761;28;19907;-71
2022/09/19 11:03:39;;;;;;;;;;;22.40;99.90;;;;;;4995219;28;19913;-72
2022/09/19 11:06:24;;;;;;;;;;;22.50;99.90;;;;;;4995908;28;19910;-71
2022/09/19 11:08:51;;;;;;;;;;;22.40;99.90;;;;;;4996405;28;19905;-72
2022/09/19 11:11:38;;;;;;;;;;;22.20;99.90;;;;;;4978293;28;20008;-72
2022/09/19 11:14:29;;;;;;;;;;;22.10;99.90;;;;;;4970721;28;19918;-74
2022/09/19 11:17:09;;;;;;;;;;;22.10;99.90;;;;;;5007780;28;19913;-71
2022/09/19 11:19:55;;;;;;;;;;;21.90;99.90;;;;;;5026469;28;19905;-71
2022/09/19 11:22:30;;;;;;;;;;;21.80;99.90;;;;;;4994622;28;19918;-71
2022/09/19 11:25:03;;;;;;;;;;;21.70;99.90;;;;;;4995334;28;20012;-71
2022/09/19 11:27:44;;;;;;;;;;;21.60;99.90;;;;;;4994711;28;19916;-71
2022/09/19 11:30:13;;;;;;;;;;;21.80;99.90;;;;;;4971177;28;19949;-70
2022/09/19 11:33:00;;;;;;;;;;;21.90;99.90;;;;;;4991150;28;19917;-70
2022/09/19 11:35:27;;;;;;;;;;;22.10;99.90;;;;;;4992713;28;19910;-71
2022/09/19 11:38:04;;;;;;;;;;;22.20;99.90;;;;;;4987639;28;19917;-72
2022/09/19 11:40:30;;;;;;;;;;;22.30;99.90;;;;;;4987895;28;19916;-71
2022/09/19 11:43:12;;;;;;;;;;;22.30;99.90;;;;;;4992096;28;19949;-71
2022/09/19 11:45:48;;;;;;;;;;;22.30;99.90;;;;;;4975956;28;20000;-70
2022/09/19 11:48:25;;;;;;;;;;;22.30;99.90;;;;;;4984221;28;19913;-70
2022/09/19 11:51:00;;;;;;;;;;;22.10;99.90;;;;;;4991098;28;19913;-71
2022/09/19 11:53:46;;;;;;;;;;;22.20;99.90;;;;;;4989174;28;19934;-71
2022/09/19 11:56:23;;;;;;;;;;;22.10;99.90;;;;;;4993502;28;19921;-72
2022/09/19 11:59:18;;;;;;;;;;;22.30;99.90;;;;;;4990035;28;19974;-70
2022/09/19 12:02:10;;;;;;;;;;;22.30;99.90;;;;;;4982398;28;19910;-70
2022/09/19 12:04:55;;;;;;;;;;;22.30;99.90;;;;;;4989010;28;20005;-70
2022/09/19 12:07:25;;;;;;;;;;;22.30;99.90;;;;;;4980010;28;19917;-70
2022/09/19 12:10:04;;;;;;;;;;;22.20;99.90;;;;;;4993708;28;19954;-71
2022/09/19 12:12:37;;;;;;;;;;;22.20;99.90;;;;;;4993314;28;19913;-69
2022/09/19 12:15:09;;;;;;;;;;;22.20;99.90;;;;;;4971753;28;19910;-71
2022/09/19 12:17:42;;;;;;;;;;;22.40;99.90;;;;;;4990315;28;19999;-72
2022/09/19 12:20:38;;;;;;;;;;;22.60;99.90;;;;;;4990020;28;19917;-71
2022/09/19 12:24:52;;;;;;;;;;;22.60;99.90;;;;;;4994434;28;19910;-71
2022/09/19 12:26:02;;;;;;;;;;;22.60;99.90;;;;;;4992113;28;20344;-72
2022/09/19 12:28:50;;;;;;;;;;;22.70;99.90;;;;;;4980072;28;19972;-71
2022/09/19 12:31:38;;;;;;;;;;;22.90;96.30;;;;;;4978581;28;19989;-72
2022/09/19 12:34:14;;;;;;;;;;;23.10;90.80;;;;;;4976575;28;20372;-71
2022/09/19 12:37:09;;;;;;;;;;;23.20;90.30;;;;;;4994189;28;19933;-71
2022/09/19 12:40:12;;;;;;;;;;;23.20;87.80;;;;;;4975377;28;20439;-71
2022/09/19 12:42:50;;;;;;;;;;;23.40;86.80;;;;;;4979843;28;19921;-71
2022/09/19 12:45:24;;;;;;;;;;;23.50;85.90;;;;;;4988965;28;20268;-71
2022/09/19 12:48:05;;;;;;;;;;;23.40;76.70;;;;;;4992151;28;19964;-72
2022/09/19 12:50:51;;;;;;;;;;;23.40;77.10;;;;;;4991390;28;20574;-71
2022/09/19 12:53:37;;;;;;;;;;;23.40;75.50;;;;;;4974302;28;19924;-71
2022/09/19 12:56:16;;;;;;;;;;;23.40;75.80;;;;;;4988815;28;19915;-71
2022/09/19 12:59:23;;;;;;;;;;;;;;;;;;;;;
2022/09/19 13:05:12;;;;;;;;;;;23.50;99.20;;;;;;4986673;28;19906;-71
2022/09/19 13:08:02;;;;;;;;;;;23.30;99.90;;;;;;4998210;28;19906;-71
2022/09/19 13:10:47;;;;;;;;;;;23.20;99.60;;;;;;4980540;28;19912;-71
2022/09/19 13:16:33;;;;;;;;;;;23.10;99.90;;;;;;4994951;28;19960;-71
2022/09/19 13:25:12;;;;;;;;;;;23.10;99.90;;;;;;4997978;28;19920;-72
2022/09/19 13:27:38;;;;;;;;;;;23.00;99.90;;;;;;4994408;28;20390;-73
2022/09/19 13:30:24;;;;;;;;;;;22.90;99.90;;;;;;4995676;28;19917;-71
2022/09/19 13:33:01;;;;;;;;;;;22.90;99.90;;;;;;4980313;28;20279;-72
2022/09/19 13:35:27;;;;;;;;;;;22.80;99.90;;;;;;4997889;28;19906;-71
2022/09/19 13:40:59;;;;;;;;;;;22.90;99.90;;;;;;4995599;28;19981;-71
2022/09/19 13:43:32;;;;;;;;;;;23.00;99.90;;;;;;4997082;28;19918;-72
2022/09/19 13:46:05;;;;;;;;;;;23.00;99.90;;;;;;4997810;28;19910;-71
2022/09/19 13:48:31;;;;;;;;;;;23.10;99.90;;;;;;4996858;28;20388;-71
2022/09/19 13:51:00;;;;;;;;;;;23.10;99.90;;;;;;4996513;28;19925;-71
2022/09/19 13:53:35;;;;;;;;;;;23.10;99.90;;;;;;4997524;28;19993;-71
2022/09/19 13:56:04;;;;;;;;;;;23.20;99.90;;;;;;4977600;28;20205;-71
2022/09/19 13:58:44;;;;;;;;;;;;;;;;;;;;;
2022/09/19 14:01:47;;;;;;;;;;;23.10;99.90;;;;;;4988472;28;19917;-71
2022/09/19 14:07:18;;;;;;;;;;;23.30;99.90;;;;;;4997908;28;19952;-74
2022/09/19 14:09:50;;;;;;;;;;;23.50;98.80;;;;;;4996895;28;20036;-72
2022/09/19 14:16:05;;;;;;;;;;;23.90;99.90;;;;;;4898076;29;19911;-71
2022/09/19 14:18:49;;;;;;;;;;;24.20;99.20;;;;;;4882272;29;20297;-71
2022/09/19 14:21:36;;;;;;;;;;;24.40;99.50;;;;;;4968669;28;19905;-73
2022/09/19 14:24:08;;;;;;;;;;;24.70;99.90;;;;;;4995698;28;19917;-72
2022/09/19 14:26:53;;;;;;;;;;;25.00;99.90;;;;;;4996261;28;19906;-72
2022/09/19 14:29:31;;;;;;;;;;;25.20;99.30;;;;;;4988801;28;20033;-71
2022/09/19 14:32:25;;;;;;;;;;;;;;;;;;;;;
2022/09/19 14:35:12;;;;;;;;;;;25.60;99.70;;;;;;4915981;29;19915;-72
2022/09/19 14:38:06;;;;;;;;;;;;;;;;;;;;;
2022/09/19 14:40:57;;;;;;;;;;;26.00;98.90;;;;;;4912939;29;19907;-72
2022/09/19 14:43:28;;;;;;;;;;;25.90;97.30;;;;;;4915055;29;19946;-72
2022/09/19 14:46:26;;;;;;;;;;;25.90;97.40;;;;;;4915733;29;19919;-71
2022/09/19 14:49:17;;;;;;;;;;;25.60;97.80;;;;;;4878892;29;19914;-72
2022/09/19 14:52:00;;;;;;;;;;;25.50;98.30;;;;;;4878868;29;19914;-72
2022/09/19 14:54:31;;;;;;;;;;;25.50;98.90;;;;;;4931692;28;19932;-72
2022/09/19 14:57:04;;;;;;;;;;;25.60;98.90;;;;;;4975030;28;20339;-72
2022/09/19 14:59:55;;;;;;;;;;;25.60;98.50;;;;;;4995545;28;19910;-72
2022/09/19 15:02:48;;;;;;;;;;;25.60;96.60;;;;;;4991849;28;20260;-71
2022/09/19 15:05:29;;;;;;;;;;;25.30;97.40;;;;;;4993831;28;19906;-71
2022/09/19 15:07:58;;;;;;;;;;;25.00;97.20;;;;;;4995008;28;19913;-72
2022/09/19 15:10:39;;;;;;;;;;;24.70;97.60;;;;;;4995523;28;19905;-73
2022/09/19 15:13:25;;;;;;;;;;;24.70;97.80;;;;;;4995514;28;20069;-72
2022/09/19 15:15:59;;;;;;;;;;;24.70;98.30;;;;;;4993070;28;19906;-72
2022/09/19 15:18:28;;;;;;;;;;;24.60;98.50;;;;;;4974615;28;19918;-74
2022/09/19 15:20:55;;;;;;;;;;;24.60;98.40;;;;;;4986479;28;20365;-72
2022/09/19 15:23:22;;;;;;;;;;;24.60;98.10;;;;;;4997346;28;19910;-73
2022/09/19 15:25:56;;;;;;;;;;;24.40;97.60;;;;;;4971678;28;19922;-72
2022/09/19 15:28:26;;;;;;;;;;;23.90;96.30;;;;;;4995446;28;20000;-71
2022/09/19 15:30:58;;;;;;;;;;;23.70;97.00;;;;;;4975668;28;19910;-75
2022/09/19 15:33:35;;;;;;;;;;;23.60;95.90;;;;;;4997564;28;19945;-73
2022/09/19 15:36:01;;;;;;;;;;;23.40;95.00;;;;;;4985726;28;19909;-72
2022/09/19 15:38:32;;;;;;;;;;;23.30;95.10;;;;;;4997205;28;19906;-72
2022/09/19 15:40:59;;;;;;;;;;;23.20;95.60;;;;;;4993934;28;20375;-71
2022/09/19 15:43:33;;;;;;;;;;;23.30;95.80;;;;;;4992617;28;20284;-70
2022/09/19 15:46:24;;;;;;;;;;;23.30;95.30;;;;;;4987114;28;19917;-73
2022/09/19 15:48:51;;;;;;;;;;;23.10;94.60;;;;;;4974287;28;20059;-70
2022/09/19 15:51:28;;;;;;;;;;;23.10;94.50;;;;;;4985606;28;20383;-71
2022/09/19 15:53:57;;;;;;;;;;;22.90;94.80;;;;;;4991721;28;19916;-74
2022/09/19 15:56:23;;;;;;;;;;;22.90;94.40;;;;;;4990882;28;20355;-71
2022/09/19 15:59:02;;;;;;;;;;;;;;;;;;;;;
2022/09/19 16:01:51;;;;;;;;;;;22.80;94.00;;;;;;4993418;28;19916;-72
2022/09/19 16:04:30;;;;;;;;;;;22.70;93.90;;;;;;4987891;28;19914;-72
2022/09/19 16:09:48;;;;;;;;;;;22.60;94.00;;;;;;4993874;28;19956;-72
2022/09/19 16:12:20;;;;;;;;;;;22.50;93.90;;;;;;4976634;28;20275;-76
2022/09/19 16:14:46;;;;;;;;;;;22.50;93.70;;;;;;4968860;28;19917;-71
2022/09/19 16:17:15;;;;;;;;;;;22.40;94.00;;;;;;4991628;28;19941;-72
2022/09/19 16:19:43;;;;;;;;;;;22.40;93.30;;;;;;4992828;28;19913;-71
2022/09/19 16:22:14;;;;;;;;;;;22.40;93.60;;;;;;4990133;28;20017;-71
2022/09/19 16:25:06;;;;;;;;;;;22.40;93.50;;;;;;4991214;28;19909;-72
2022/09/19 16:27:31;;;;;;;;;;;22.30;93.50;;;;;;4969214;28;20424;-68
2022/09/19 16:29:59;;;;;;;;;;;22.20;94.10;;;;;;4993645;28;19909;-72
2022/09/19 16:32:48;;;;;;;;;;;;;;;;;;;;;
2022/09/19 16:35:18;;;;;;;;;;;22.00;93.90;;;;;;4992029;28;19910;-72
2022/09/19 16:37:46;;;;;;;;;;;21.90;93.90;;;;;;4986664;28;19910;-72
2022/09/19 16:40:24;;;;;;;;;;;21.80;94.50;;;;;;4991757;28;19921;-72
2022/09/19 16:42:50;;;;;;;;;;;21.80;95.20;;;;;;4992069;28;19951;-74
2022/09/19 16:45:20;;;;;;;;;;;21.60;95.60;;;;;;4992686;28;20268;-72
2022/09/19 16:47:46;;;;;;;;;;;21.50;95.70;;;;;;4993854;28;19920;-73
2022/09/19 16:50:17;;;;;;;;;;;21.50;96.70;;;;;;4993858;28;19913;-73
2022/09/19 16:52:44;;;;;;;;;;;21.40;97.00;;;;;;4987274;28;19909;-73
2022/09/19 16:55:25;;;;;;;;;;;21.30;97.40;;;;;;4985729;28;20327;-73
2022/09/19 16:57:56;;;;;;;;;;;21.30;96.60;;;;;;4992318;28;20360;-72
2022/09/19 17:00:22;;;;;;;;;;;21.20;96.80;;;;;;4976955;28;19906;-74
2022/09/19 17:02:48;;;;;;;;;;;21.10;96.90;;;;;;4994771;28;19917;-72
2022/09/19 17:05:18;;;;;;;;;;;21.10;97.40;;;;;;4992285;28;19921;-72
2022/09/19 17:07:45;;;;;;;;;;;21.00;97.30;;;;;;4993216;28;20074;-74
2022/09/19 17:10:17;;;;;;;;;;;20.90;97.70;;;;;;4994909;28;20376;-73
2022/09/19 17:12:43;;;;;;;;;;;20.90;98.10;;;;;;4993428;28;19936;-73
2022/09/19 17:15:35;;;;;;;;;;;20.90;98.30;;;;;;4992441;28;19910;-72
2022/09/19 17:18:01;;;;;;;;;;;20.70;98.80;;;;;;4998050;28;19932;-73
2022/09/19 17:20:27;;;;;;;;;;;20.60;99.30;;;;;;4993472;28;19909;-73
2022/09/19 17:22:53;;;;;;;;;;;20.50;99.80;;;;;;4976061;28;20316;-74
2022/09/19 17:25:29;;;;;;;;;;;20.50;99.90;;;;;;4977396;28;19910;-73
2022/09/19 17:27:56;;;;;;;;;;;20.40;99.90;;;;;;5000210;28;19945;-72
2022/09/19 17:30:21;;;;;;;;;;;20.30;99.90;;;;;;4994844;28;19913;-73
2022/09/19 17:32:47;;;;;;;;;;;20.30;99.90;;;;;;4987084;28;20435;-73
2022/09/19 17:35:14;;;;;;;;;;;20.10;99.90;;;;;;4994192;28;19937;-72
2022/09/19 17:37:39;;;;;;;;;;;20.10;99.90;;;;;;4993367;28;19913;-72
2022/09/19 17:40:05;;;;;;;;;;;20.10;99.90;;;;;;4992179;28;19906;-72
2022/09/19 17:42:31;;;;;;;;;;;19.90;99.90;;;;;;4989025;28;19921;-72
2022/09/19 17:44:57;;;;;;;;;;;19.80;99.90;;;;;;4975993;28;19936;-73
2022/09/19 17:47:23;;;;;;;;;;;19.80;99.90;;;;;;4991806;28;20031;-73
2022/09/19 17:50:09;;;;;;;;;;;19.80;99.90;;;;;;4975763;28;20423;-74
2022/09/19 17:52:35;;;;;;;;;;;19.70;99.90;;;;;;4960159;28;19941;-73
2022/09/19 17:55:05;;;;;;;;;;;19.80;99.90;;;;;;4993475;28;19906;-72
2022/09/19 17:57:52;;;;;;;;;;;;;;;;;;;;;
2022/09/19 18:00:20;;;;;;;;;;;19.70;99.90;;;;;;4989512;28;20313;-72
2022/09/19 18:05:49;;;;;;;;;;;19.70;99.90;;;;;;4989599;28;20334;-72
2022/09/19 18:08:15;;;;;;;;;;;19.70;99.90;;;;;;4997590;28;20007;-72
2022/09/19 18:10:41;;;;;;;;;;;19.60;99.90;;;;;;4989260;28;19906;-72
2022/09/19 18:13:45;;;;;;;;;;;;;;;;;;;;;
2022/09/19 18:16:20;;;;;;;;;;;19.60;99.90;;;;;;4988231;28;19914;-72
2022/09/19 18:18:46;;;;;;;;;;;19.50;99.90;;;;;;4989140;28;19996;-73
2022/09/19 18:21:12;;;;;;;;;;;19.50;99.90;;;;;;4993120;28;19913;-73
2022/09/19 18:23:45;;;;;;;;;;;19.50;99.90;;;;;;4967791;28;20421;-72
2022/09/19 18:26:17;;;;;;;;;;;19.40;99.90;;;;;;4992306;28;19912;-73
2022/09/19 18:28:52;;;;;;;;;;;19.40;99.90;;;;;;4993269;28;19909;-73
2022/09/19 18:31:17;;;;;;;;;;;19.40;99.90;;;;;;4992345;28;19906;-73
2022/09/19 18:33:43;;;;;;;;;;;19.40;99.90;;;;;;4974789;28;19979;-71
2022/09/19 18:36:11;;;;;;;;;;;19.40;99.90;;;;;;4991615;28;19952;-71
2022/09/19 18:38:37;;;;;;;;;;;19.40;99.90;;;;;;4990017;28;19957;-78
2022/09/19 18:41:03;;;;;;;;;;;19.40;99.90;;;;;;4997190;28;19905;-78
2022/09/19 18:43:32;;;;;;;;;;;19.40;99.90;;;;;;4987697;28;19909;-77
2022/09/19 18:46:06;;;;;;;;;;;19.40;99.90;;;;;;4993924;28;19928;-78
2022/09/19 18:48:34;;;;;;;;;;;19.30;99.90;;;;;;4991140;28;19917;-78
2022/09/19 18:51:06;;;;;;;;;;;19.30;99.90;;;;;;5002123;28;19992;-78
2022/09/19 18:53:31;;;;;;;;;;;19.30;99.90;;;;;;4990532;28;19906;-78
2022/09/19 18:56:28;;;;;;;;;;;;;;;;;;;;;
2022/09/19 18:59:06;;;;;;;;;;;19.20;99.90;;;;;;4937602;29;20021;-79
2022/09/19 19:01:40;;;;;;;;;;;19.00;99.90;;;;;;4978368;28;20395;-78
2022/09/19 19:04:06;;;;;;;;;;;19.00;99.90;;;;;;5000705;28;19929;-78
2022/09/19 19:06:32;;;;;;;;;;;19.00;99.90;;;;;;5001322;28;19921;-78
2022/09/19 19:09:04;;;;;;;;;;;19.00;99.90;;;;;;5006162;28;20009;-78
2022/09/19 19:11:33;;;;;;;;;;;19.00;99.90;;;;;;4983245;28;19909;-78
2022/09/19 19:14:00;;;;;;;;;;;19.00;99.90;;;;;;4985427;28;19975;-78
2022/09/19 19:16:28;;;;;;;;;;;19.00;99.90;;;;;;5009126;28;19912;-78
2022/09/19 19:18:54;;;;;;;;;;;18.90;99.90;;;;;;4989424;28;19935;-78
2022/09/19 19:21:22;;;;;;;;;;;18.80;99.90;;;;;;4998959;28;19917;-78
2022/09/19 19:24:26;;;;;;;;;;;18.80;99.90;;;;;;4986635;28;19974;-79
2022/09/19 19:30:33;;;;;;;;;;;18.90;99.90;;;;;;4874614;29;19912;-78
2022/09/19 19:39:13;;;;;;;;;;;18.70;99.90;;;;;;4798727;29;19924;-80
2022/09/19 19:41:39;;;;;;;;;;;18.80;99.90;;;;;;4822505;29;19912;-79
2022/09/19 19:44:24;;;;;;;;;;;;;;;;;;;;;
2022/09/19 19:50:09;;;;;;;;;;;18.80;99.90;;;;;;4903002;29;20409;-78
2022/09/19 19:52:35;;;;;;;;;;;18.70;99.90;;;;;;4911281;28;19911;-77
2022/09/19 19:55:04;;;;;;;;;;;18.50;99.90;;;;;;4995273;28;19909;-78
2022/09/19 19:58:14;;;;;;;;;;;18.50;99.90;;;;;;4983525;28;19984;-79
2022/09/19 20:01:03;;;;;;;;;;;;;;;;;;;;;
2022/09/19 20:07:09;;;;;;;;;;;18.40;99.90;;;;;;4991449;28;19984;-78
2022/09/19 20:09:57;;;;;;;;;;;18.30;99.90;;;;;;5007358;28;20024;-78
2022/09/19 20:12:48;;;;;;;;;;;18.30;99.90;;;;;;5002304;28;19928;-79
2022/09/19 20:15:14;;;;;;;;;;;18.30;99.90;;;;;;4990051;28;19948;-78
2022/09/19 20:17:40;;;;;;;;;;;18.20;99.90;;;;;;4992318;28;19909;-78
2022/09/19 20:20:08;;;;;;;;;;;18.20;99.90;;;;;;5007764;28;19910;-78
2022/09/19 20:22:34;;;;;;;;;;;18.20;99.90;;;;;;5011116;28;19894;-78
2022/09/19 20:25:13;;;;;;;;;;;18.20;99.90;;;;;;4984081;28;19894;-78
2022/09/19 20:27:59;;;;;;;;;;;18.20;99.90;;;;;;4996245;28;19914;-76
2022/09/19 20:30:30;;;;;;;;;;;18.20;99.90;;;;;;4996364;28;19905;-78
2022/09/19 20:32:55;;;;;;;;;;;18.20;99.90;;;;;;5014068;28;19936;-77
2022/09/19 20:35:34;;;;;;;;;;;18.10;99.90;;;;;;5013157;28;19902;-78
2022/09/19 20:38:00;;;;;;;;;;;18.00;99.90;;;;;;5014034;28;19906;-78
2022/09/19 20:40:26;;;;;;;;;;;18.00;99.90;;;;;;5014527;28;19937;-78
2022/09/19 20:42:55;;;;;;;;;;;17.90;99.90;;;;;;5014276;28;20020;-78
2022/09/19 20:45:20;;;;;;;;;;;17.90;99.90;;;;;;5011976;28;19913;-78
2022/09/19 20:47:47;;;;;;;;;;;18.00;99.90;;;;;;5015955;28;19948;-78
2022/09/19 20:50:13;;;;;;;;;;;18.00;99.90;;;;;;5031110;28;19909;-77
2022/09/19 20:52:40;;;;;;;;;;;18.00;99.90;;;;;;5024215;28;19914;-77
2022/09/19 20:55:06;;;;;;;;;;;18.10;99.90;;;;;;4980239;28;20280;-77
2022/09/19 20:57:32;;;;;;;;;;;18.10;99.90;;;;;;5004873;28;20190;-78
2022/09/19 20:59:59;;;;;;;;;;;18.20;99.90;;;;;;4975730;28;20312;-79
2022/09/19 21:02:28;;;;;;;;;;;18.20;99.90;;;;;;4994995;28;19910;-77
2022/09/19 21:04:54;;;;;;;;;;;18.30;99.90;;;;;;5004806;28;20004;-77
2022/09/19 21:07:29;;;;;;;;;;;18.40;99.90;;;;;;5009241;28;19920;-77
2022/09/19 21:09:58;;;;;;;;;;;18.50;99.90;;;;;;5008902;28;19910;-76
2022/09/19 21:12:30;;;;;;;;;;;18.50;99.90;;;;;;5012267;28;19952;-77
2022/09/19 21:17:54;;;;;;;;;;;18.50;99.90;;;;;;5009978;28;19941;-76
2022/09/19 21:20:19;;;;;;;;;;;18.50;99.90;;;;;;5010133;28;19906;-76
2022/09/19 21:22:45;;;;;;;;;;;18.50;99.90;;;;;;4987538;28;19952;-76
2022/09/19 21:25:11;;;;;;;;;;;18.50;99.90;;;;;;4995210;28;19921;-77
2022/09/19 21:27:37;;;;;;;;;;;18.50;99.90;;;;;;4990005;28;19914;-77
2022/09/19 21:30:03;;;;;;;;;;;18.50;99.90;;;;;;4999717;28;19933;-76
2022/09/19 21:32:28;;;;;;;;;;;18.50;99.90;;;;;;5004533;28;19906;-77
2022/09/19 21:34:54;;;;;;;;;;;18.50;99.90;;;;;;4986488;28;19906;-77
2022/09/19 21:37:20;;;;;;;;;;;18.40;99.90;;;;;;5003784;28;19913;-77
2022/09/19 21:39:46;;;;;;;;;;;18.40;99.90;;;;;;5005976;28;19910;-77